sensor_id;sensor_type;location;lat;lon;timestamp;P1;durP1;ratioP1;P2;durP2;ratioP2
14732;SDS011;7457;50.960;6.830;2023-12-20T00:00:55;17.75;;;12.95;;
14732;SDS011;7457;50.960;6.830;2023-12-20T00:03:21;18.38;;;13.63;;
14732;SDS011;7457;50.960;6.830;2023-12-20T00:05:47;18.58;;;13.27;;
14732;SDS011;7457;50.960;6.830;2023-12-20T00:08:12;16.45;;;11.80;;
14732;SDS011;7457;50.960;6.830;2023-12-20T00:10:38;17.08;;;10.60;;
14732;SDS011;7457;50.960;6.830;2023-12-20T00:13:03;13.88;;;11.23;;
14732;SDS011;7457;50.960;6.830;2023-12-20T00:15:29;15.50;;;11.02;;
14732;SDS011;7457;50.960;6.830;2023-12-20T00:17:55;13.40;;;10.55;;
14732;SDS011;7457;50.960;6.830;2023-12-20T00:20:20;14.27;;;10.20;;
14732;SDS011;7457;50.960;6.830;2023-12-20T00:22:46;12.63;;;9.70;;
14732;SDS011;7457;50.960;6.830;2023-12-20T00:25:12;11.10;;;8.73;;
14732;SDS011;7457;50.960;6.830;2023-12-20T00:27:37;12.65;;;9.07;;
14732;SDS011;7457;50.960;6.830;2023-12-20T00:30:03;13.18;;;8.35;;
14732;SDS011;7457;50.960;6.830;2023-12-20T00:32:29;12.50;;;8.68;;
14732;SDS011;7457;50.960;6.830;2023-12-20T00:34:55;12.50;;;9.35;;
14732;SDS011;7457;50.960;6.830;2023-12-20T00:37:21;12.65;;;8.63;;
14732;SDS011;7457;50.960;6.830;2023-12-20T00:39:47;11.75;;;8.10;;
14732;SDS011;7457;50.960;6.830;2023-12-20T00:42:13;11.95;;;8.05;;
14732;SDS011;7457;50.960;6.830;2023-12-20T00:44:38;11.27;;;7.90;;
14732;SDS011;7457;50.960;6.830;2023-12-20T00:47:04;10.60;;;7.38;;
14732;SDS011;7457;50.960;6.830;2023-12-20T00:49:29;10.00;;;7.15;;
14732;SDS011;7457;50.960;6.830;2023-12-20T00:51:55;10.35;;;7.30;;
14732;SDS011;7457;50.960;6.830;2023-12-20T00:54:21;9.65;;;7.38;;
14732;SDS011;7457;50.960;6.830;2023-12-20T00:56:47;11.00;;;7.65;;
14732;SDS011;7457;50.960;6.830;2023-12-20T00:59:12;10.80;;;7.30;;
14732;SDS011;7457;50.960;6.830;2023-12-20T01:01:38;10.00;;;6.97;;
14732;SDS011;7457;50.960;6.830;2023-12-20T01:04:04;13.82;;;7.90;;
14732;SDS011;7457;50.960;6.830;2023-12-20T01:06:29;15.32;;;8.65;;
14732;SDS011;7457;50.960;6.830;2023-12-20T01:08:55;11.40;;;8.05;;
14732;SDS011;7457;50.960;6.830;2023-12-20T01:11:21;11.10;;;7.90;;
14732;SDS011;7457;50.960;6.830;2023-12-20T01:13:47;13.00;;;8.60;;
14732;SDS011;7457;50.960;6.830;2023-12-20T01:16:12;12.07;;;8.18;;
14732;SDS011;7457;50.960;6.830;2023-12-20T01:18:38;16.08;;;10.32;;
14732;SDS011;7457;50.960;6.830;2023-12-20T01:21:04;14.73;;;8.50;;
14732;SDS011;7457;50.960;6.830;2023-12-20T01:23:30;10.18;;;7.72;;
14732;SDS011;7457;50.960;6.830;2023-12-20T01:25:56;14.43;;;8.02;;
14732;SDS011;7457;50.960;6.830;2023-12-20T01:28:21;11.48;;;8.55;;
14732;SDS011;7457;50.960;6.830;2023-12-20T01:30:47;12.95;;;8.93;;
14732;SDS011;7457;50.960;6.830;2023-12-20T01:33:13;15.45;;;10.40;;
14732;SDS011;7457;50.960;6.830;2023-12-20T01:35:38;20.20;;;10.40;;
14732;SDS011;7457;50.960;6.830;2023-12-20T01:38:04;16.73;;;11.77;;
14732;SDS011;7457;50.960;6.830;2023-12-20T01:40:30;20.35;;;12.20;;
14732;SDS011;7457;50.960;6.830;2023-12-20T01:43:08;20.35;;;13.00;;
14732;SDS011;7457;50.960;6.830;2023-12-20T01:45:34;18.35;;;12.77;;
14732;SDS011;7457;50.960;6.830;2023-12-20T01:48:00;20.42;;;14.20;;
14732;SDS011;7457;50.960;6.830;2023-12-20T01:50:28;22.17;;;13.00;;
14732;SDS011;7457;50.960;6.830;2023-12-20T01:52:54;18.83;;;12.27;;
14732;SDS011;7457;50.960;6.830;2023-12-20T01:55:25;17.73;;;11.43;;
14732;SDS011;7457;50.960;6.830;2023-12-20T01:57:54;24.83;;;11.82;;
14732;SDS011;7457;50.960;6.830;2023-12-20T02:00:21;14.00;;;9.15;;
14732;SDS011;7457;50.960;6.830;2023-12-20T02:02:52;14.88;;;8.25;;
14732;SDS011;7457;50.960;6.830;2023-12-20T02:05:20;16.33;;;8.07;;
14732;SDS011;7457;50.960;6.830;2023-12-20T02:07:47;9.80;;;6.82;;
14732;SDS011;7457;50.960;6.830;2023-12-20T02:10:13;12.73;;;6.82;;
14732;SDS011;7457;50.960;6.830;2023-12-20T02:12:38;9.00;;;5.75;;
14732;SDS011;7457;50.960;6.830;2023-12-20T02:15:05;12.43;;;5.68;;
14732;SDS011;7457;50.960;6.830;2023-12-20T02:17:31;14.38;;;5.70;;
14732;SDS011;7457;50.960;6.830;2023-12-20T02:19:57;10.38;;;4.88;;
14732;SDS011;7457;50.960;6.830;2023-12-20T02:22:23;13.23;;;5.15;;
14732;SDS011;7457;50.960;6.830;2023-12-20T02:24:49;13.65;;;5.80;;
14732;SDS011;7457;50.960;6.830;2023-12-20T02:27:14;14.70;;;5.85;;
14732;SDS011;7457;50.960;6.830;2023-12-20T02:29:41;8.55;;;4.82;;
14732;SDS011;7457;50.960;6.830;2023-12-20T02:32:07;13.63;;;6.07;;
14732;SDS011;7457;50.960;6.830;2023-12-20T02:34:32;19.85;;;5.50;;
14732;SDS011;7457;50.960;6.830;2023-12-20T02:36:58;13.60;;;4.15;;
14732;SDS011;7457;50.960;6.830;2023-12-20T02:39:23;10.52;;;3.47;;
14732;SDS011;7457;50.960;6.830;2023-12-20T02:41:49;10.70;;;3.55;;
14732;SDS011;7457;50.960;6.830;2023-12-20T02:44:15;8.88;;;3.67;;
14732;SDS011;7457;50.960;6.830;2023-12-20T02:46:40;11.07;;;3.53;;
14732;SDS011;7457;50.960;6.830;2023-12-20T02:49:06;12.73;;;4.30;;
14732;SDS011;7457;50.960;6.830;2023-12-20T02:51:32;10.90;;;3.40;;
14732;SDS011;7457;50.960;6.830;2023-12-20T02:53:57;8.48;;;3.50;;
14732;SDS011;7457;50.960;6.830;2023-12-20T02:56:23;7.13;;;3.53;;
14732;SDS011;7457;50.960;6.830;2023-12-20T02:58:49;13.30;;;4.35;;
14732;SDS011;7457;50.960;6.830;2023-12-20T03:01:14;13.93;;;3.45;;
14732;SDS011;7457;50.960;6.830;2023-12-20T03:03:40;8.05;;;3.10;;
14732;SDS011;7457;50.960;6.830;2023-12-20T03:06:05;9.65;;;3.00;;
14732;SDS011;7457;50.960;6.830;2023-12-20T03:08:31;13.60;;;3.67;;
14732;SDS011;7457;50.960;6.830;2023-12-20T03:10:58;13.85;;;3.33;;
14732;SDS011;7457;50.960;6.830;2023-12-20T03:13:24;9.18;;;2.95;;
14732;SDS011;7457;50.960;6.830;2023-12-20T03:15:50;9.52;;;3.45;;
14732;SDS011;7457;50.960;6.830;2023-12-20T03:18:16;9.43;;;3.50;;
14732;SDS011;7457;50.960;6.830;2023-12-20T03:20:42;9.68;;;3.22;;
14732;SDS011;7457;50.960;6.830;2023-12-20T03:23:07;7.25;;;3.00;;
14732;SDS011;7457;50.960;6.830;2023-12-20T03:25:33;7.72;;;3.50;;
14732;SDS011;7457;50.960;6.830;2023-12-20T03:27:58;10.35;;;3.83;;
14732;SDS011;7457;50.960;6.830;2023-12-20T03:30:24;9.07;;;3.03;;
14732;SDS011;7457;50.960;6.830;2023-12-20T03:32:50;13.82;;;3.95;;
14732;SDS011;7457;50.960;6.830;2023-12-20T03:35:15;11.95;;;4.03;;
14732;SDS011;7457;50.960;6.830;2023-12-20T03:37:41;10.43;;;3.40;;
14732;SDS011;7457;50.960;6.830;2023-12-20T03:40:07;10.00;;;3.63;;
14732;SDS011;7457;50.960;6.830;2023-12-20T03:42:32;10.27;;;4.00;;
14732;SDS011;7457;50.960;6.830;2023-12-20T03:44:58;16.27;;;3.53;;
14732;SDS011;7457;50.960;6.830;2023-12-20T03:47:24;11.20;;;3.70;;
14732;SDS011;7457;50.960;6.830;2023-12-20T03:49:49;10.27;;;4.03;;
14732;SDS011;7457;50.960;6.830;2023-12-20T03:52:15;11.20;;;3.75;;
14732;SDS011;7457;50.960;6.830;2023-12-20T03:54:40;10.40;;;4.88;;
14732;SDS011;7457;50.960;6.830;2023-12-20T03:57:08;12.55;;;3.70;;
14732;SDS011;7457;50.960;6.830;2023-12-20T03:59:34;8.25;;;3.45;;
14732;SDS011;7457;50.960;6.830;2023-12-20T04:02:01;13.60;;;4.80;;
14732;SDS011;7457;50.960;6.830;2023-12-20T04:04:27;12.23;;;4.05;;
14732;SDS011;7457;50.960;6.830;2023-12-20T04:06:52;12.73;;;4.50;;
14732;SDS011;7457;50.960;6.830;2023-12-20T04:09:18;11.27;;;4.40;;
14732;SDS011;7457;50.960;6.830;2023-12-20T04:11:44;10.63;;;4.53;;
14732;SDS011;7457;50.960;6.830;2023-12-20T04:14:09;8.15;;;3.88;;
14732;SDS011;7457;50.960;6.830;2023-12-20T04:16:35;9.23;;;4.18;;
14732;SDS011;7457;50.960;6.830;2023-12-20T04:19:01;13.52;;;5.53;;
14732;SDS011;7457;50.960;6.830;2023-12-20T04:21:27;12.50;;;3.95;;
14732;SDS011;7457;50.960;6.830;2023-12-20T04:23:53;8.77;;;3.28;;
14732;SDS011;7457;50.960;6.830;2023-12-20T04:26:18;10.35;;;4.22;;
14732;SDS011;7457;50.960;6.830;2023-12-20T04:28:44;14.75;;;4.63;;
14732;SDS011;7457;50.960;6.830;2023-12-20T04:31:09;11.65;;;4.53;;
14732;SDS011;7457;50.960;6.830;2023-12-20T04:33:35;10.60;;;4.45;;
14732;SDS011;7457;50.960;6.830;2023-12-20T04:36:00;16.73;;;5.38;;
14732;SDS011;7457;50.960;6.830;2023-12-20T04:38:26;6.88;;;3.65;;
14732;SDS011;7457;50.960;6.830;2023-12-20T04:40:52;11.25;;;4.68;;
14732;SDS011;7457;50.960;6.830;2023-12-20T04:43:17;16.73;;;4.65;;
14732;SDS011;7457;50.960;6.830;2023-12-20T04:45:43;11.30;;;4.40;;
14732;SDS011;7457;50.960;6.830;2023-12-20T04:48:08;11.85;;;4.65;;
14732;SDS011;7457;50.960;6.830;2023-12-20T04:50:34;14.30;;;4.93;;
14732;SDS011;7457;50.960;6.830;2023-12-20T04:53:00;13.88;;;4.10;;
14732;SDS011;7457;50.960;6.830;2023-12-20T04:55:26;11.15;;;4.47;;
14732;SDS011;7457;50.960;6.830;2023-12-20T04:57:51;8.93;;;4.88;;
14732;SDS011;7457;50.960;6.830;2023-12-20T05:00:17;10.32;;;4.57;;
14732;SDS011;7457;50.960;6.830;2023-12-20T05:02:43;9.82;;;4.32;;
14732;SDS011;7457;50.960;6.830;2023-12-20T05:05:09;10.02;;;3.83;;
14732;SDS011;7457;50.960;6.830;2023-12-20T05:07:34;9.50;;;4.75;;
14732;SDS011;7457;50.960;6.830;2023-12-20T05:10:00;11.13;;;4.65;;
14732;SDS011;7457;50.960;6.830;2023-12-20T05:12:26;7.57;;;3.90;;
14732;SDS011;7457;50.960;6.830;2023-12-20T05:14:51;10.40;;;4.47;;
14732;SDS011;7457;50.960;6.830;2023-12-20T05:17:17;19.30;;;4.65;;
14732;SDS011;7457;50.960;6.830;2023-12-20T05:19:45;10.43;;;4.40;;
14732;SDS011;7457;50.960;6.830;2023-12-20T05:22:10;18.42;;;4.32;;
14732;SDS011;7457;50.960;6.830;2023-12-20T05:24:36;13.13;;;4.85;;
14732;SDS011;7457;50.960;6.830;2023-12-20T05:27:02;13.95;;;5.30;;
14732;SDS011;7457;50.960;6.830;2023-12-20T05:29:28;9.77;;;4.28;;
14732;SDS011;7457;50.960;6.830;2023-12-20T05:31:53;15.23;;;4.57;;
14732;SDS011;7457;50.960;6.830;2023-12-20T05:34:19;10.77;;;4.32;;
14732;SDS011;7457;50.960;6.830;2023-12-20T05:36:45;16.15;;;5.95;;
14732;SDS011;7457;50.960;6.830;2023-12-20T05:39:11;10.15;;;4.28;;
14732;SDS011;7457;50.960;6.830;2023-12-20T05:41:36;13.80;;;5.07;;
14732;SDS011;7457;50.960;6.830;2023-12-20T05:44:02;10.85;;;4.53;;
14732;SDS011;7457;50.960;6.830;2023-12-20T05:46:28;9.18;;;4.72;;
14732;SDS011;7457;50.960;6.830;2023-12-20T05:48:53;14.02;;;4.78;;
14732;SDS011;7457;50.960;6.830;2023-12-20T05:51:19;12.30;;;4.30;;
14732;SDS011;7457;50.960;6.830;2023-12-20T05:53:45;9.88;;;3.90;;
14732;SDS011;7457;50.960;6.830;2023-12-20T05:56:10;9.85;;;4.32;;
14732;SDS011;7457;50.960;6.830;2023-12-20T05:58:36;9.63;;;4.05;;
14732;SDS011;7457;50.960;6.830;2023-12-20T06:01:04;10.10;;;4.63;;
14732;SDS011;7457;50.960;6.830;2023-12-20T06:03:30;17.33;;;5.25;;
14732;SDS011;7457;50.960;6.830;2023-12-20T06:05:55;11.80;;;4.90;;
14732;SDS011;7457;50.960;6.830;2023-12-20T06:08:21;11.27;;;4.32;;
14732;SDS011;7457;50.960;6.830;2023-12-20T06:10:47;14.00;;;4.80;;
14732;SDS011;7457;50.960;6.830;2023-12-20T06:13:12;16.25;;;4.63;;
14732;SDS011;7457;50.960;6.830;2023-12-20T06:15:39;15.75;;;4.38;;
14732;SDS011;7457;50.960;6.830;2023-12-20T06:18:05;14.02;;;4.57;;
14732;SDS011;7457;50.960;6.830;2023-12-20T06:20:31;16.55;;;5.22;;
14732;SDS011;7457;50.960;6.830;2023-12-20T06:22:57;11.10;;;4.68;;
14732;SDS011;7457;50.960;6.830;2023-12-20T06:25:23;14.95;;;5.57;;
14732;SDS011;7457;50.960;6.830;2023-12-20T06:27:49;15.57;;;5.13;;
14732;SDS011;7457;50.960;6.830;2023-12-20T06:30:15;9.75;;;4.88;;
14732;SDS011;7457;50.960;6.830;2023-12-20T06:32:41;12.02;;;4.55;;
14732;SDS011;7457;50.960;6.830;2023-12-20T06:35:08;16.80;;;5.05;;
14732;SDS011;7457;50.960;6.830;2023-12-20T06:37:34;10.18;;;4.60;;
14732;SDS011;7457;50.960;6.830;2023-12-20T06:40:00;12.57;;;4.43;;
14732;SDS011;7457;50.960;6.830;2023-12-20T06:42:25;12.02;;;4.15;;
14732;SDS011;7457;50.960;6.830;2023-12-20T06:44:51;11.55;;;4.60;;
14732;SDS011;7457;50.960;6.830;2023-12-20T06:47:17;8.82;;;4.15;;
14732;SDS011;7457;50.960;6.830;2023-12-20T06:49:43;15.60;;;4.90;;
14732;SDS011;7457;50.960;6.830;2023-12-20T06:52:08;19.90;;;5.10;;
14732;SDS011;7457;50.960;6.830;2023-12-20T06:54:34;15.45;;;4.82;;
14732;SDS011;7457;50.960;6.830;2023-12-20T06:57:00;8.77;;;3.88;;
14732;SDS011;7457;50.960;6.830;2023-12-20T06:59:25;11.63;;;4.22;;
14732;SDS011;7457;50.960;6.830;2023-12-20T07:01:51;15.88;;;4.75;;
14732;SDS011;7457;50.960;6.830;2023-12-20T07:04:17;13.13;;;4.97;;
14732;SDS011;7457;50.960;6.830;2023-12-20T07:06:46;11.10;;;4.20;;
14732;SDS011;7457;50.960;6.830;2023-12-20T07:09:13;9.20;;;3.88;;
14732;SDS011;7457;50.960;6.830;2023-12-20T07:11:39;7.80;;;3.33;;
14732;SDS011;7457;50.960;6.830;2023-12-20T07:14:04;8.50;;;3.92;;
14732;SDS011;7457;50.960;6.830;2023-12-20T07:16:30;15.68;;;4.15;;
14732;SDS011;7457;50.960;6.830;2023-12-20T07:18:56;9.77;;;4.28;;
14732;SDS011;7457;50.960;6.830;2023-12-20T07:21:22;12.18;;;3.97;;
14732;SDS011;7457;50.960;6.830;2023-12-20T07:23:48;13.75;;;4.35;;
14732;SDS011;7457;50.960;6.830;2023-12-20T07:26:14;10.98;;;4.45;;
14732;SDS011;7457;50.960;6.830;2023-12-20T07:28:40;15.63;;;5.20;;
14732;SDS011;7457;50.960;6.830;2023-12-20T07:31:05;11.70;;;4.50;;
14732;SDS011;7457;50.960;6.830;2023-12-20T07:33:31;10.43;;;4.68;;
14732;SDS011;7457;50.960;6.830;2023-12-20T07:35:57;9.43;;;4.88;;
14732;SDS011;7457;50.960;6.830;2023-12-20T07:38:24;16.15;;;5.25;;
14732;SDS011;7457;50.960;6.830;2023-12-20T07:40:50;13.02;;;5.13;;
14732;SDS011;7457;50.960;6.830;2023-12-20T07:43:15;12.43;;;4.72;;
14732;SDS011;7457;50.960;6.830;2023-12-20T07:45:41;11.50;;;4.90;;
14732;SDS011;7457;50.960;6.830;2023-12-20T07:48:07;9.75;;;4.50;;
14732;SDS011;7457;50.960;6.830;2023-12-20T07:50:33;22.55;;;5.50;;
14732;SDS011;7457;50.960;6.830;2023-12-20T07:52:59;14.35;;;5.05;;
14732;SDS011;7457;50.960;6.830;2023-12-20T07:55:26;12.02;;;5.05;;
14732;SDS011;7457;50.960;6.830;2023-12-20T07:57:52;7.30;;;4.50;;
14732;SDS011;7457;50.960;6.830;2023-12-20T08:00:17;13.10;;;5.38;;
14732;SDS011;7457;50.960;6.830;2023-12-20T08:02:44;9.95;;;4.70;;
14732;SDS011;7457;50.960;6.830;2023-12-20T08:05:09;12.15;;;4.97;;
14732;SDS011;7457;50.960;6.830;2023-12-20T08:07:35;9.98;;;5.35;;
14732;SDS011;7457;50.960;6.830;2023-12-20T08:10:01;9.95;;;4.60;;
14732;SDS011;7457;50.960;6.830;2023-12-20T08:12:27;11.88;;;5.00;;
14732;SDS011;7457;50.960;6.830;2023-12-20T08:14:53;21.92;;;5.70;;
14732;SDS011;7457;50.960;6.830;2023-12-20T08:17:19;15.55;;;5.07;;
14732;SDS011;7457;50.960;6.830;2023-12-20T08:19:45;13.20;;;4.82;;
14732;SDS011;7457;50.960;6.830;2023-12-20T08:22:11;12.20;;;4.90;;
14732;SDS011;7457;50.960;6.830;2023-12-20T08:24:36;13.27;;;5.45;;
14732;SDS011;7457;50.960;6.830;2023-12-20T08:27:03;12.93;;;4.63;;
14732;SDS011;7457;50.960;6.830;2023-12-20T08:29:29;8.32;;;4.80;;
14732;SDS011;7457;50.960;6.830;2023-12-20T08:31:55;16.23;;;5.68;;
14732;SDS011;7457;50.960;6.830;2023-12-20T08:34:21;9.30;;;4.45;;
14732;SDS011;7457;50.960;6.830;2023-12-20T08:36:47;11.10;;;5.03;;
14732;SDS011;7457;50.960;6.830;2023-12-20T08:39:13;12.10;;;4.60;;
14732;SDS011;7457;50.960;6.830;2023-12-20T08:41:38;14.27;;;5.70;;
14732;SDS011;7457;50.960;6.830;2023-12-20T08:44:04;16.08;;;4.80;;
14732;SDS011;7457;50.960;6.830;2023-12-20T08:46:29;10.85;;;4.55;;
14732;SDS011;7457;50.960;6.830;2023-12-20T08:48:55;10.27;;;4.80;;
14732;SDS011;7457;50.960;6.830;2023-12-20T08:51:21;10.63;;;4.25;;
14732;SDS011;7457;50.960;6.830;2023-12-20T08:53:49;13.55;;;4.90;;
14732;SDS011;7457;50.960;6.830;2023-12-20T08:56:15;13.02;;;4.82;;
14732;SDS011;7457;50.960;6.830;2023-12-20T08:58:41;13.23;;;4.28;;
14732;SDS011;7457;50.960;6.830;2023-12-20T09:01:07;17.45;;;5.07;;
14732;SDS011;7457;50.960;6.830;2023-12-20T09:03:33;10.65;;;4.13;;
14732;SDS011;7457;50.960;6.830;2023-12-20T09:05:58;10.95;;;4.45;;
14732;SDS011;7457;50.960;6.830;2023-12-20T09:08:24;12.90;;;4.60;;
14732;SDS011;7457;50.960;6.830;2023-12-20T09:10:49;11.30;;;4.82;;
14732;SDS011;7457;50.960;6.830;2023-12-20T09:13:15;12.15;;;4.40;;
14732;SDS011;7457;50.960;6.830;2023-12-20T09:15:41;13.35;;;4.38;;
14732;SDS011;7457;50.960;6.830;2023-12-20T09:18:06;15.88;;;6.05;;
14732;SDS011;7457;50.960;6.830;2023-12-20T09:20:32;12.82;;;5.40;;
14732;SDS011;7457;50.960;6.830;2023-12-20T09:22:58;18.15;;;4.78;;
14732;SDS011;7457;50.960;6.830;2023-12-20T09:25:24;15.10;;;5.13;;
14732;SDS011;7457;50.960;6.830;2023-12-20T09:27:51;9.88;;;4.45;;
14732;SDS011;7457;50.960;6.830;2023-12-20T09:30:17;14.40;;;4.05;;
14732;SDS011;7457;50.960;6.830;2023-12-20T09:32:43;11.52;;;4.97;;
14732;SDS011;7457;50.960;6.830;2023-12-20T09:35:10;13.27;;;4.07;;
14732;SDS011;7457;50.960;6.830;2023-12-20T09:37:35;10.85;;;4.03;;
14732;SDS011;7457;50.960;6.830;2023-12-20T09:40:01;11.23;;;4.10;;
14732;SDS011;7457;50.960;6.830;2023-12-20T09:42:38;12.95;;;3.97;;
14732;SDS011;7457;50.960;6.830;2023-12-20T09:45:13;8.82;;;3.78;;
14732;SDS011;7457;50.960;6.830;2023-12-20T09:47:42;7.65;;;4.13;;
14732;SDS011;7457;50.960;6.830;2023-12-20T09:50:08;14.63;;;3.63;;
14732;SDS011;7457;50.960;6.830;2023-12-20T09:52:35;11.43;;;4.22;;
14732;SDS011;7457;50.960;6.830;2023-12-20T09:55:03;8.15;;;3.95;;
14732;SDS011;7457;50.960;6.830;2023-12-20T09:57:31;18.00;;;4.00;;
14732;SDS011;7457;50.960;6.830;2023-12-20T09:59:57;10.20;;;3.90;;
14732;SDS011;7457;50.960;6.830;2023-12-20T10:02:24;10.93;;;4.32;;
14732;SDS011;7457;50.960;6.830;2023-12-20T10:04:52;14.77;;;4.43;;
14732;SDS011;7457;50.960;6.830;2023-12-20T10:07:19;8.80;;;4.18;;
14732;SDS011;7457;50.960;6.830;2023-12-20T10:09:46;7.82;;;3.72;;
14732;SDS011;7457;50.960;6.830;2023-12-20T10:12:12;10.63;;;4.85;;
14732;SDS011;7457;50.960;6.830;2023-12-20T10:14:38;17.90;;;4.80;;
14732;SDS011;7457;50.960;6.830;2023-12-20T10:17:04;13.02;;;4.60;;
14732;SDS011;7457;50.960;6.830;2023-12-20T10:19:31;12.00;;;3.97;;
14732;SDS011;7457;50.960;6.830;2023-12-20T10:21:58;13.43;;;4.55;;
14732;SDS011;7457;50.960;6.830;2023-12-20T10:24:25;12.70;;;4.20;;
14732;SDS011;7457;50.960;6.830;2023-12-20T10:27:05;9.70;;;4.30;;
14732;SDS011;7457;50.960;6.830;2023-12-20T10:29:35;11.15;;;4.07;;
14732;SDS011;7457;50.960;6.830;2023-12-20T10:34:50;11.90;;;4.60;;
14732;SDS011;7457;50.960;6.830;2023-12-20T10:37:16;9.73;;;3.63;;
14732;SDS011;7457;50.960;6.830;2023-12-20T10:39:49;12.27;;;3.70;;
14732;SDS011;7457;50.960;6.830;2023-12-20T10:42:22;8.05;;;3.95;;
14732;SDS011;7457;50.960;6.830;2023-12-20T10:44:51;14.30;;;4.82;;
14732;SDS011;7457;50.960;6.830;2023-12-20T10:47:18;11.13;;;3.85;;
14732;SDS011;7457;50.960;6.830;2023-12-20T10:49:45;9.48;;;3.75;;
14732;SDS011;7457;50.960;6.830;2023-12-20T10:52:11;7.47;;;3.67;;
14732;SDS011;7457;50.960;6.830;2023-12-20T10:54:38;8.02;;;4.25;;
14732;SDS011;7457;50.960;6.830;2023-12-20T10:57:05;10.57;;;3.50;;
14732;SDS011;7457;50.960;6.830;2023-12-20T10:59:33;12.57;;;3.97;;
14732;SDS011;7457;50.960;6.830;2023-12-20T11:02:02;13.10;;;4.25;;
14732;SDS011;7457;50.960;6.830;2023-12-20T11:07:19;8.27;;;3.85;;
14732;SDS011;7457;50.960;6.830;2023-12-20T11:09:57;10.23;;;5.57;;
14732;SDS011;7457;50.960;6.830;2023-12-20T11:14:57;10.70;;;3.95;;
14732;SDS011;7457;50.960;6.830;2023-12-20T11:17:28;6.82;;;3.45;;
14732;SDS011;7457;50.960;6.830;2023-12-20T11:22:22;11.88;;;3.83;;
14732;SDS011;7457;50.960;6.830;2023-12-20T11:24:50;8.75;;;4.03;;
14732;SDS011;7457;50.960;6.830;2023-12-20T11:27:18;11.50;;;3.58;;
14732;SDS011;7457;50.960;6.830;2023-12-20T11:29:50;7.07;;;3.05;;
14732;SDS011;7457;50.960;6.830;2023-12-20T11:34:59;8.43;;;4.18;;
14732;SDS011;7457;50.960;6.830;2023-12-20T11:37:45;8.77;;;3.85;;
14732;SDS011;7457;50.960;6.830;2023-12-20T11:40:17;13.68;;;3.90;;
14732;SDS011;7457;50.960;6.830;2023-12-20T11:42:48;10.68;;;3.45;;
14732;SDS011;7457;50.960;6.830;2023-12-20T11:45:18;11.60;;;4.30;;
14732;SDS011;7457;50.960;6.830;2023-12-20T11:47:46;8.82;;;3.75;;
14732;SDS011;7457;50.960;6.830;2023-12-20T11:50:16;9.05;;;3.88;;
14732;SDS011;7457;50.960;6.830;2023-12-20T11:52:42;9.52;;;4.20;;
14732;SDS011;7457;50.960;6.830;2023-12-20T11:55:08;12.95;;;4.55;;
14732;SDS011;7457;50.960;6.830;2023-12-20T11:57:34;7.18;;;3.50;;
14732;SDS011;7457;50.960;6.830;2023-12-20T12:00:01;7.45;;;4.00;;
14732;SDS011;7457;50.960;6.830;2023-12-20T12:02:28;10.13;;;3.83;;
14732;SDS011;7457;50.960;6.830;2023-12-20T12:04:54;11.40;;;3.58;;
14732;SDS011;7457;50.960;6.830;2023-12-20T12:07:21;7.82;;;3.20;;
14732;SDS011;7457;50.960;6.830;2023-12-20T12:09:47;12.15;;;4.50;;
14732;SDS011;7457;50.960;6.830;2023-12-20T12:12:13;15.23;;;4.45;;
14732;SDS011;7457;50.960;6.830;2023-12-20T12:14:39;9.50;;;3.80;;
14732;SDS011;7457;50.960;6.830;2023-12-20T12:17:11;14.00;;;4.47;;
14732;SDS011;7457;50.960;6.830;2023-12-20T12:19:37;9.02;;;3.95;;
14732;SDS011;7457;50.960;6.830;2023-12-20T12:22:07;7.68;;;3.90;;
14732;SDS011;7457;50.960;6.830;2023-12-20T12:24:36;7.47;;;4.07;;
14732;SDS011;7457;50.960;6.830;2023-12-20T12:27:02;12.18;;;3.70;;
14732;SDS011;7457;50.960;6.830;2023-12-20T12:29:28;16.77;;;4.65;;
14732;SDS011;7457;50.960;6.830;2023-12-20T12:31:54;8.23;;;3.60;;
14732;SDS011;7457;50.960;6.830;2023-12-20T12:34:20;11.82;;;3.60;;
14732;SDS011;7457;50.960;6.830;2023-12-20T12:36:45;12.27;;;4.25;;
14732;SDS011;7457;50.960;6.830;2023-12-20T12:39:13;9.82;;;4.07;;
14732;SDS011;7457;50.960;6.830;2023-12-20T12:41:41;8.02;;;4.10;;
14732;SDS011;7457;50.960;6.830;2023-12-20T12:44:07;11.00;;;3.92;;
14732;SDS011;7457;50.960;6.830;2023-12-20T12:46:33;10.68;;;3.95;;
14732;SDS011;7457;50.960;6.830;2023-12-20T12:48:59;10.65;;;4.65;;
14732;SDS011;7457;50.960;6.830;2023-12-20T12:51:25;14.68;;;5.38;;
14732;SDS011;7457;50.960;6.830;2023-12-20T12:53:50;9.55;;;4.55;;
14732;SDS011;7457;50.960;6.830;2023-12-20T12:56:16;17.15;;;4.90;;
14732;SDS011;7457;50.960;6.830;2023-12-20T12:58:42;13.10;;;4.28;;
14732;SDS011;7457;50.960;6.830;2023-12-20T13:01:08;9.02;;;4.53;;
14732;SDS011;7457;50.960;6.830;2023-12-20T13:03:34;9.88;;;4.97;;
14732;SDS011;7457;50.960;6.830;2023-12-20T13:06:00;9.65;;;4.90;;
14732;SDS011;7457;50.960;6.830;2023-12-20T13:08:26;9.25;;;4.22;;
14732;SDS011;7457;50.960;6.830;2023-12-20T13:10:53;13.02;;;5.10;;
14732;SDS011;7457;50.960;6.830;2023-12-20T13:13:20;9.23;;;4.30;;
14732;SDS011;7457;50.960;6.830;2023-12-20T13:15:46;8.57;;;4.93;;
14732;SDS011;7457;50.960;6.830;2023-12-20T13:18:16;12.27;;;4.30;;
14732;SDS011;7457;50.960;6.830;2023-12-20T13:20:43;6.50;;;4.43;;
14732;SDS011;7457;50.960;6.830;2023-12-20T13:23:09;9.02;;;3.58;;
14732;SDS011;7457;50.960;6.830;2023-12-20T13:25:35;17.23;;;4.68;;
14732;SDS011;7457;50.960;6.830;2023-12-20T13:28:01;11.85;;;4.32;;
14732;SDS011;7457;50.960;6.830;2023-12-20T13:30:28;11.68;;;4.55;;
14732;SDS011;7457;50.960;6.830;2023-12-20T13:32:54;6.53;;;3.88;;
14732;SDS011;7457;50.960;6.830;2023-12-20T13:35:20;14.77;;;4.47;;
14732;SDS011;7457;50.960;6.830;2023-12-20T13:37:46;13.38;;;4.80;;
14732;SDS011;7457;50.960;6.830;2023-12-20T13:40:12;10.25;;;4.15;;
14732;SDS011;7457;50.960;6.830;2023-12-20T13:42:40;7.30;;;4.05;;
14732;SDS011;7457;50.960;6.830;2023-12-20T13:45:07;7.55;;;3.67;;
14732;SDS011;7457;50.960;6.830;2023-12-20T13:47:33;13.32;;;3.97;;
14732;SDS011;7457;50.960;6.830;2023-12-20T13:50:00;10.60;;;4.18;;
14732;SDS011;7457;50.960;6.830;2023-12-20T13:52:27;9.68;;;4.30;;
14732;SDS011;7457;50.960;6.830;2023-12-20T13:54:52;8.43;;;3.58;;
14732;SDS011;7457;50.960;6.830;2023-12-20T13:57:18;9.70;;;4.00;;
14732;SDS011;7457;50.960;6.830;2023-12-20T13:59:43;13.18;;;3.92;;
14732;SDS011;7457;50.960;6.830;2023-12-20T14:02:10;5.30;;;3.65;;
14732;SDS011;7457;50.960;6.830;2023-12-20T14:04:35;12.95;;;4.43;;
14732;SDS011;7457;50.960;6.830;2023-12-20T14:07:01;9.18;;;4.10;;
14732;SDS011;7457;50.960;6.830;2023-12-20T14:09:27;9.02;;;3.90;;
14732;SDS011;7457;50.960;6.830;2023-12-20T14:11:53;16.50;;;3.92;;
14732;SDS011;7457;50.960;6.830;2023-12-20T14:14:19;7.28;;;3.85;;
14732;SDS011;7457;50.960;6.830;2023-12-20T14:16:45;8.50;;;3.80;;
14732;SDS011;7457;50.960;6.830;2023-12-20T14:19:11;7.97;;;4.50;;
14732;SDS011;7457;50.960;6.830;2023-12-20T14:21:37;14.93;;;4.60;;
14732;SDS011;7457;50.960;6.830;2023-12-20T14:24:03;8.63;;;4.28;;
14732;SDS011;7457;50.960;6.830;2023-12-20T14:26:29;8.52;;;4.00;;
14732;SDS011;7457;50.960;6.830;2023-12-20T14:28:55;7.82;;;4.10;;
14732;SDS011;7457;50.960;6.830;2023-12-20T14:31:21;11.55;;;4.38;;
14732;SDS011;7457;50.960;6.830;2023-12-20T14:33:49;9.07;;;4.15;;
14732;SDS011;7457;50.960;6.830;2023-12-20T14:36:15;9.75;;;3.92;;
14732;SDS011;7457;50.960;6.830;2023-12-20T14:38:42;10.10;;;4.30;;
14732;SDS011;7457;50.960;6.830;2023-12-20T14:41:08;10.48;;;4.20;;
14732;SDS011;7457;50.960;6.830;2023-12-20T14:43:34;11.60;;;4.10;;
14732;SDS011;7457;50.960;6.830;2023-12-20T14:46:00;8.63;;;4.15;;
14732;SDS011;7457;50.960;6.830;2023-12-20T14:48:25;8.88;;;3.72;;
14732;SDS011;7457;50.960;6.830;2023-12-20T14:50:52;10.75;;;4.03;;
14732;SDS011;7457;50.960;6.830;2023-12-20T14:53:18;15.13;;;4.38;;
14732;SDS011;7457;50.960;6.830;2023-12-20T14:55:44;8.15;;;3.85;;
14732;SDS011;7457;50.960;6.830;2023-12-20T14:58:10;8.65;;;3.70;;